createdAt,value
2024-03-09T00:00:45.648Z,4.00
2024-03-09T00:03:17.061Z,5.00
2024-03-09T00:05:48.231Z,4.60
2024-03-09T00:08:20.455Z,4.50
2024-03-09T00:10:51.895Z,5.20
2024-03-09T00:13:23.009Z,4.50
2024-03-09T00:15:54.255Z,4.00
2024-03-09T00:18:36.439Z,3.50
2024-03-09T00:21:12.654Z,4.00
2024-03-09T00:23:43.725Z,4.50
2024-03-09T00:26:15.309Z,4.70
2024-03-09T00:28:46.607Z,4.90
2024-03-09T00:31:19.086Z,4.10
2024-03-09T00:33:50.772Z,5.10
2024-03-09T00:36:24.420Z,4.20
2024-03-09T00:38:55.152Z,4.70
2024-03-09T00:41:26.048Z,4.90
2024-03-09T00:43:56.986Z,5.10
2024-03-09T00:46:27.836Z,4.90
2024-03-09T00:48:58.696Z,4.60
2024-03-09T00:51:31.416Z,4.60
2024-03-09T00:54:02.896Z,4.40
2024-03-09T00:56:34.446Z,5.30
2024-03-09T00:59:07.689Z,5.40
2024-03-09T01:01:41.935Z,5.50
2024-03-09T01:04:12.982Z,5.40
2024-03-09T01:06:43.887Z,5.80
2024-03-09T01:09:16.290Z,4.70
2024-03-09T01:11:50.019Z,4.20
2024-03-09T01:16:50.146Z,4.70
2024-03-09T01:19:21.017Z,5.00
2024-03-09T01:21:53.473Z,4.70
2024-03-09T01:24:25.046Z,5.10
2024-03-09T01:26:55.878Z,4.70
2024-03-09T01:29:26.801Z,5.30
2024-03-09T01:31:59.459Z,5.00
2024-03-09T01:34:30.344Z,4.70
2024-03-09T01:37:02.823Z,5.00
2024-03-09T01:39:35.059Z,5.00
2024-03-09T01:42:09.410Z,5.00
2024-03-09T01:44:40.699Z,4.50
2024-03-09T01:47:13.247Z,4.50
2024-03-09T01:49:44.900Z,4.70
2024-03-09T01:52:15.806Z,4.10
2024-03-09T01:54:49.545Z,5.00
2024-03-09T01:57:21.901Z,5.10
2024-03-09T01:59:56.181Z,4.80
2024-03-09T02:02:27.492Z,5.90
2024-03-09T02:04:59.227Z,5.10
2024-03-09T02:07:30.217Z,4.70
2024-03-09T02:10:01.247Z,4.70
2024-03-09T02:12:32.282Z,4.50
2024-03-09T02:15:05.526Z,5.00
2024-03-09T02:17:36.407Z,4.20
2024-03-09T02:20:12.395Z,5.00
2024-03-09T02:22:48.707Z,4.20
2024-03-09T02:25:22.823Z,4.50
2024-03-09T02:27:53.875Z,5.30
2024-03-09T02:30:25.587Z,5.00
2024-03-09T02:32:56.374Z,4.90
2024-03-09T02:35:27.379Z,4.50
2024-03-09T02:37:59.145Z,4.60
2024-03-09T02:40:30.000Z,4.60
2024-03-09T02:43:09.379Z,5.00
2024-03-09T02:45:43.721Z,6.10
2024-03-09T02:48:14.771Z,4.20
2024-03-09T02:50:46.869Z,4.40
2024-03-09T02:53:17.845Z,4.80
2024-03-09T02:55:48.755Z,4.10
2024-03-09T02:58:20.013Z,4.80
2024-03-09T03:00:51.246Z,5.50
2024-03-09T03:03:41.034Z,4.30
2024-03-09T03:06:11.867Z,4.70
2024-03-09T03:08:42.719Z,4.60
2024-03-09T03:11:16.295Z,4.70
2024-03-09T03:13:48.318Z,4.10
2024-03-09T03:16:27.354Z,4.50
2024-03-09T03:18:58.922Z,5.80
2024-03-09T03:21:31.084Z,4.20
2024-03-09T03:24:02.899Z,3.80
2024-03-09T03:26:33.758Z,4.00
2024-03-09T03:29:04.948Z,4.20
2024-03-09T03:31:37.527Z,4.10
2024-03-09T03:34:08.516Z,4.10
2024-03-09T03:36:39.941Z,4.50
2024-03-09T03:39:14.293Z,4.80
2024-03-09T03:41:46.022Z,4.50
2024-03-09T03:44:16.746Z,3.60
2024-03-09T03:46:48.493Z,4.20
2024-03-09T03:49:19.322Z,3.70
2024-03-09T03:51:50.236Z,4.90
2024-03-09T03:54:23.423Z,4.20
2024-03-09T03:56:54.869Z,5.60
2024-03-09T03:59:25.805Z,5.30
2024-03-09T04:01:56.610Z,4.40
2024-03-09T04:04:28.259Z,5.60
2024-03-09T04:06:59.342Z,4.40
2024-03-09T04:09:32.176Z,4.10
2024-03-09T04:12:03.083Z,5.80
2024-03-09T04:14:33.970Z,5.70
2024-03-09T04:17:04.821Z,5.70
2024-03-09T04:19:38.401Z,6.10
2024-03-09T04:22:12.660Z,6.20
2024-03-09T04:24:46.020Z,6.90
2024-03-09T04:27:17.936Z,5.10
2024-03-09T04:29:50.361Z,5.80
2024-03-09T04:32:21.405Z,6.60
2024-03-09T04:34:52.449Z,5.10
2024-03-09T04:37:28.624Z,4.80
2024-03-09T04:40:00.309Z,6.80
2024-03-09T04:42:31.424Z,5.70
2024-03-09T04:45:02.227Z,5.90
2024-03-09T04:47:34.493Z,5.70
2024-03-09T04:50:06.292Z,6.20
2024-03-09T04:52:38.484Z,6.10
2024-03-09T04:55:11.188Z,6.20
2024-03-09T04:57:44.580Z,7.00
2024-03-09T05:00:18.667Z,7.20
2024-03-09T05:02:50.855Z,6.90
2024-03-09T05:05:22.503Z,7.00
2024-03-09T05:07:55.480Z,7.20
2024-03-09T05:10:27.483Z,6.80
2024-03-09T05:12:58.490Z,7.50
2024-03-09T05:15:31.267Z,6.80
2024-03-09T05:18:04.365Z,7.00
2024-03-09T05:20:36.120Z,8.10
2024-03-09T05:23:12.759Z,8.20
2024-03-09T05:25:46.920Z,6.50
2024-03-09T05:28:21.415Z,7.70
2024-03-09T05:30:52.276Z,8.50
2024-03-09T05:33:23.224Z,7.40
2024-03-09T05:35:54.158Z,7.10
2024-03-09T05:38:25.284Z,7.40
2024-03-09T05:40:56.296Z,6.40
2024-03-09T05:43:27.481Z,8.40
2024-03-09T05:45:59.339Z,8.00
2024-03-09T05:48:30.851Z,7.90
2024-03-09T05:51:01.674Z,8.90
2024-03-09T05:53:32.694Z,8.30
2024-03-09T05:56:03.794Z,7.50
2024-03-09T05:58:35.369Z,8.20
2024-03-09T06:01:06.545Z,7.80
2024-03-09T06:03:43.063Z,8.40
2024-03-09T06:06:14.331Z,9.40
2024-03-09T06:08:45.120Z,8.90
2024-03-09T06:11:17.598Z,8.30
2024-03-09T06:13:49.813Z,9.10
2024-03-09T06:16:21.283Z,7.90
2024-03-09T06:18:52.333Z,6.90
2024-03-09T06:21:23.513Z,7.40
2024-03-09T06:23:54.696Z,8.90
2024-03-09T06:26:25.506Z,8.10
2024-03-09T06:28:56.954Z,8.60
2024-03-09T06:31:27.899Z,8.80
2024-03-09T06:33:58.755Z,8.90
2024-03-09T06:36:30.108Z,7.80
2024-03-09T06:39:01.233Z,7.30
2024-03-09T06:41:32.238Z,8.30
2024-03-09T06:44:03.627Z,7.80
2024-03-09T06:46:35.012Z,9.00
2024-03-09T06:49:06.500Z,9.30
2024-03-09T06:51:37.532Z,7.70
2024-03-09T06:54:08.685Z,8.10
2024-03-09T06:56:39.534Z,7.90
2024-03-09T06:59:10.673Z,8.70
2024-03-09T07:01:41.800Z,7.70
2024-03-09T07:04:12.763Z,8.90
2024-03-09T07:06:43.523Z,8.90
2024-03-09T07:09:14.611Z,10.00
2024-03-09T07:11:45.544Z,10.90
2024-03-09T07:14:16.591Z,9.90
2024-03-09T07:16:48.134Z,9.80
2024-03-09T07:19:19.350Z,9.80
2024-03-09T07:21:50.346Z,8.10
2024-03-09T07:24:24.210Z,8.20
2024-03-09T07:26:57.344Z,9.50
2024-03-09T07:29:29.852Z,7.90
2024-03-09T07:32:01.096Z,8.60
2024-03-09T07:34:32.968Z,9.00
2024-03-09T07:37:05.633Z,9.30
2024-03-09T07:39:39.246Z,8.80
2024-03-09T07:42:11.274Z,7.70
2024-03-09T07:44:42.126Z,8.10
2024-03-09T07:47:13.847Z,7.80
2024-03-09T07:49:45.077Z,8.70
2024-03-09T07:52:16.968Z,8.00
2024-03-09T07:54:47.824Z,7.80
2024-03-09T07:57:18.875Z,8.10
2024-03-09T07:59:49.737Z,8.40
2024-03-09T08:02:20.946Z,7.30
2024-03-09T08:04:52.148Z,8.30
2024-03-09T08:07:23.765Z,8.10
2024-03-09T08:09:54.847Z,7.10
2024-03-09T08:12:26.354Z,8.40
2024-03-09T08:14:57.344Z,10.10
2024-03-09T08:17:31.191Z,7.50
2024-03-09T08:20:07.460Z,6.30
2024-03-09T08:22:41.525Z,8.10
2024-03-09T08:25:14.389Z,8.50
2024-03-09T08:27:47.565Z,8.00
2024-03-09T08:30:19.776Z,7.90
2024-03-09T08:32:55.034Z,6.40
2024-03-09T08:35:28.553Z,5.70
2024-03-09T08:37:59.704Z,7.20
2024-03-09T08:40:32.694Z,7.40
2024-03-09T08:43:08.028Z,6.20
2024-03-09T08:45:39.247Z,8.10
2024-03-09T08:48:13.361Z,7.90
2024-03-09T08:50:44.868Z,8.40
2024-03-09T08:53:18.964Z,7.60
2024-03-09T08:55:50.477Z,7.10
2024-03-09T08:58:21.718Z,6.60
2024-03-09T09:00:53.055Z,9.30
2024-03-09T09:03:24.765Z,7.30
2024-03-09T09:05:56.687Z,7.40
2024-03-09T09:08:27.952Z,7.10
2024-03-09T09:10:59.394Z,7.10
2024-03-09T09:13:30.813Z,6.70
2024-03-09T09:16:02.878Z,6.80
2024-03-09T09:18:33.835Z,7.40
2024-03-09T09:21:05.281Z,7.70
2024-03-09T09:23:36.561Z,8.00
2024-03-09T09:26:07.920Z,7.00
2024-03-09T09:28:39.513Z,6.50
2024-03-09T09:31:12.925Z,7.50
2024-03-09T09:33:45.037Z,6.40
2024-03-09T09:36:17.265Z,6.90
2024-03-09T09:38:48.693Z,6.10
2024-03-09T09:41:20.405Z,7.10
2024-03-09T09:43:52.812Z,7.20
2024-03-09T09:46:23.842Z,6.40
2024-03-09T09:48:55.393Z,6.30
2024-03-09T09:51:27.332Z,7.40
2024-03-09T09:54:03.414Z,6.20
2024-03-09T09:56:34.446Z,7.30
2024-03-09T09:59:05.622Z,7.00
2024-03-09T10:01:36.970Z,7.80
2024-03-09T10:04:08.406Z,5.90
2024-03-09T10:06:40.063Z,6.50
2024-03-09T10:09:11.007Z,6.50
2024-03-09T10:11:42.323Z,5.90
2024-03-09T10:14:13.421Z,6.00
2024-03-09T10:16:44.489Z,7.40
2024-03-09T10:19:19.876Z,5.80
2024-03-09T10:21:53.162Z,6.30
2024-03-09T10:24:24.764Z,7.00
2024-03-09T10:26:55.681Z,8.00
2024-03-09T10:29:26.872Z,7.30
2024-03-09T10:32:10.872Z,6.90
2024-03-09T10:34:42.268Z,7.00
2024-03-09T10:37:18.968Z,7.70
2024-03-09T10:39:51.981Z,6.60
2024-03-09T10:42:25.278Z,8.50
2024-03-09T10:44:57.685Z,7.40
2024-03-09T10:47:29.340Z,8.20
2024-03-09T10:50:04.390Z,8.90
2024-03-09T10:52:36.826Z,10.30
2024-03-09T10:55:11.948Z,9.60
2024-03-09T10:57:45.804Z,8.20
2024-03-09T11:03:04.867Z,9.00
2024-03-09T11:05:38.404Z,10.40
2024-03-09T11:08:11.451Z,10.30
2024-03-09T11:10:45.289Z,9.10
2024-03-09T11:13:19.940Z,8.90
2024-03-09T11:15:56.719Z,9.60
2024-03-09T11:18:28.262Z,11.30
2024-03-09T11:21:02.263Z,11.20
2024-03-09T11:23:36.654Z,10.80
2024-03-09T11:26:09.196Z,9.30
2024-03-09T11:28:57.187Z,11.10
2024-03-09T11:31:29.631Z,9.50
2024-03-09T11:34:17.096Z,12.30
2024-03-09T11:36:52.060Z,10.80
2024-03-09T11:39:27.518Z,12.40
2024-03-09T11:42:02.174Z,12.20
2024-03-09T11:44:35.379Z,13.20
2024-03-09T11:47:07.151Z,11.00
2024-03-09T11:49:41.142Z,13.50
2024-03-09T11:52:15.925Z,13.00
2024-03-09T11:54:50.414Z,12.90
2024-03-09T11:57:22.617Z,13.40
2024-03-09T11:59:54.046Z,15.20
2024-03-09T12:02:25.627Z,13.60
2024-03-09T12:05:02.764Z,14.10
2024-03-09T12:07:34.399Z,13.40
2024-03-09T12:10:07.463Z,14.60
2024-03-09T12:12:42.198Z,14.90
2024-03-09T12:15:18.469Z,14.70
2024-03-09T12:17:49.697Z,15.80
2024-03-09T12:20:21.208Z,13.90
2024-03-09T12:22:53.468Z,13.50
2024-03-09T12:25:25.270Z,14.60
2024-03-09T12:27:56.392Z,17.30
2024-03-09T12:30:29.785Z,16.80
2024-03-09T12:33:02.366Z,18.00
2024-03-09T12:35:37.210Z,18.10
2024-03-09T12:38:15.950Z,19.60
2024-03-09T12:40:48.868Z,15.00
2024-03-09T12:43:20.318Z,15.10
2024-03-09T12:45:54.010Z,15.50
2024-03-09T12:48:27.050Z,14.70
2024-03-09T12:51:01.089Z,15.50
2024-03-09T12:53:35.141Z,16.10
2024-03-09T12:56:08.397Z,16.30
2024-03-09T12:58:39.605Z,14.20
2024-03-09T13:01:11.665Z,15.50
2024-03-09T13:03:42.981Z,16.80
2024-03-09T13:06:14.016Z,16.20
2024-03-09T13:08:44.977Z,15.90
2024-03-09T13:11:22.001Z,17.30
2024-03-09T13:13:53.540Z,16.20
2024-03-09T13:16:24.667Z,16.00
2024-03-09T13:18:56.670Z,15.70
2024-03-09T13:21:28.409Z,14.80
2024-03-09T13:24:00.085Z,15.50
2024-03-09T13:26:33.929Z,17.40
2024-03-09T13:31:36.754Z,15.80
2024-03-09T13:34:14.143Z,17.40
2024-03-09T13:36:45.500Z,14.70
2024-03-09T13:39:18.230Z,15.50
2024-03-09T13:41:50.339Z,15.20
2024-03-09T13:44:25.913Z,14.90
2024-03-09T13:47:01.362Z,15.90
2024-03-09T13:49:32.580Z,14.40
2024-03-09T13:52:04.416Z,16.10
2024-03-09T13:54:35.815Z,14.60
2024-03-09T13:57:07.982Z,15.10
2024-03-09T13:59:38.901Z,15.20
2024-03-09T14:02:10.834Z,15.70
2024-03-09T14:04:42.216Z,14.90
2024-03-09T14:07:14.491Z,15.20
2024-03-09T14:09:50.797Z,16.10
2024-03-09T14:12:23.798Z,15.50
2024-03-09T14:14:56.790Z,15.70
2024-03-09T14:17:28.463Z,15.60
2024-03-09T14:20:05.392Z,15.70
2024-03-09T14:22:36.730Z,17.20
2024-03-09T14:25:15.588Z,15.80
2024-03-09T14:27:47.105Z,16.10
2024-03-09T14:30:25.498Z,14.10
2024-03-09T14:32:58.046Z,14.90
2024-03-09T14:35:33.852Z,15.40
2024-03-09T14:38:06.019Z,14.30
2024-03-09T14:40:37.989Z,14.70
2024-03-09T14:43:12.805Z,17.00
2024-03-09T14:45:44.066Z,13.40
2024-03-09T14:48:17.365Z,14.00
2024-03-09T14:50:48.521Z,14.60
2024-03-09T14:53:19.638Z,14.80
2024-03-09T14:55:52.711Z,14.40
2024-03-09T14:58:23.993Z,14.20
2024-03-09T15:00:56.325Z,15.30
2024-03-09T15:03:36.096Z,14.50
2024-03-09T15:06:12.317Z,14.40
2024-03-09T15:08:43.983Z,12.60
2024-03-09T15:11:17.784Z,13.00
2024-03-09T15:13:53.428Z,11.40
2024-03-09T15:16:28.654Z,13.50
2024-03-09T15:19:00.394Z,13.40
2024-03-09T15:21:31.765Z,12.60
2024-03-09T15:24:02.890Z,12.70
2024-03-09T15:26:36.454Z,13.90
2024-03-09T15:29:07.471Z,12.00
2024-03-09T15:31:38.702Z,13.90
2024-03-09T15:34:11.447Z,11.70
2024-03-09T15:36:42.613Z,12.80
2024-03-09T15:39:14.651Z,11.90
2024-03-09T15:41:45.745Z,12.60
2024-03-09T15:44:19.578Z,12.20
2024-03-09T15:49:20.446Z,12.30
2024-03-09T15:51:51.410Z,11.60
2024-03-09T15:54:26.000Z,10.70
2024-03-09T15:56:57.205Z,13.00
2024-03-09T15:59:28.468Z,11.20
2024-03-09T16:01:59.871Z,13.60
2024-03-09T16:04:31.108Z,12.60
2024-03-09T16:07:04.396Z,13.60
2024-03-09T16:09:35.607Z,10.40
2024-03-09T16:12:12.383Z,12.30
2024-03-09T16:14:43.826Z,12.10
2024-03-09T16:17:18.426Z,12.00
2024-03-09T16:19:52.931Z,10.80
2024-03-09T16:22:24.037Z,10.20
2024-03-09T16:24:55.278Z,13.00
2024-03-09T16:27:27.572Z,10.60
2024-03-09T16:29:58.520Z,10.60
2024-03-09T16:32:29.616Z,10.90
2024-03-09T16:35:02.537Z,11.40
2024-03-09T16:37:33.779Z,11.80
2024-03-09T16:40:16.018Z,10.60
2024-03-09T16:42:47.122Z,10.00
2024-03-09T16:45:19.927Z,9.60
2024-03-09T16:47:51.070Z,8.80
2024-03-09T16:50:22.365Z,10.00
2024-03-09T16:52:55.795Z,8.90
2024-03-09T16:55:28.021Z,10.60
2024-03-09T16:58:02.557Z,9.30
2024-03-09T17:00:36.396Z,9.50
2024-03-09T17:03:11.328Z,10.10
2024-03-09T17:05:44.540Z,8.30
2024-03-09T17:08:21.729Z,7.30
2024-03-09T17:10:55.266Z,8.00
2024-03-09T17:13:27.239Z,7.50
2024-03-09T17:16:00.020Z,9.00
2024-03-09T17:18:31.099Z,12.90
2024-03-09T17:21:02.527Z,13.70
2024-03-09T17:23:34.084Z,14.20
2024-03-09T17:26:05.539Z,12.60
2024-03-09T17:28:36.970Z,12.30
2024-03-09T17:31:09.509Z,12.10
2024-03-09T17:33:43.487Z,10.10
2024-03-09T17:36:16.907Z,10.30
2024-03-09T17:38:49.426Z,9.90
2024-03-09T17:41:20.832Z,7.50
2024-03-09T17:43:52.229Z,11.80
2024-03-09T17:46:24.336Z,11.70
2024-03-09T17:48:55.557Z,9.60
2024-03-09T17:51:28.367Z,11.00
2024-03-09T17:53:59.416Z,8.60
2024-03-09T17:56:31.074Z,9.50
2024-03-09T17:59:03.139Z,10.10
2024-03-09T18:01:34.080Z,9.80
2024-03-09T18:04:06.389Z,10.10
2024-03-09T18:06:37.705Z,8.70
2024-03-09T18:09:08.819Z,8.00
2024-03-09T18:11:40.174Z,7.70
2024-03-09T18:14:13.348Z,9.00
2024-03-09T18:16:44.821Z,9.10
2024-03-09T18:19:15.932Z,9.50
2024-03-09T18:21:48.587Z,9.60
2024-03-09T18:24:20.174Z,9.20
2024-03-09T18:26:52.058Z,8.70
2024-03-09T18:29:24.936Z,9.50
2024-03-09T18:31:57.292Z,9.40
2024-03-09T18:34:28.893Z,8.50
2024-03-09T18:37:02.232Z,8.40
2024-03-09T18:39:33.583Z,8.70
2024-03-09T18:42:05.818Z,8.70
2024-03-09T18:44:37.702Z,9.20
2024-03-09T18:47:09.465Z,10.80
2024-03-09T18:49:40.670Z,10.10
2024-03-09T18:52:12.927Z,6.80
2024-03-09T18:54:44.353Z,9.00
2024-03-09T18:57:15.685Z,10.20
2024-03-09T18:59:48.487Z,7.90
2024-03-09T19:02:19.923Z,9.90
2024-03-09T19:04:51.990Z,9.30
2024-03-09T19:07:23.506Z,8.90
2024-03-09T19:09:56.592Z,12.70
2024-03-09T19:12:27.555Z,8.50
2024-03-09T19:14:58.607Z,9.00
2024-03-09T19:17:30.462Z,11.10
2024-03-09T19:20:01.805Z,9.20
2024-03-09T19:22:33.521Z,8.20
2024-03-09T19:25:07.989Z,8.70
2024-03-09T19:27:41.989Z,11.20
2024-03-09T19:30:17.211Z,11.10
2024-03-09T19:32:50.820Z,8.30
2024-03-09T19:35:24.707Z,11.10
2024-03-09T19:37:59.386Z,7.90
2024-03-09T19:40:31.713Z,8.90
2024-03-09T19:43:02.652Z,8.30
2024-03-09T19:45:35.681Z,10.00
2024-03-09T19:48:14.373Z,7.80
2024-03-09T19:50:45.659Z,9.20
2024-03-09T19:53:16.973Z,11.00
2024-03-09T19:55:48.189Z,8.30
2024-03-09T19:58:19.394Z,8.30
2024-03-09T20:00:50.822Z,8.30
2024-03-09T20:03:22.015Z,9.10
2024-03-09T20:05:53.200Z,7.00
2024-03-09T20:08:25.842Z,6.60
2024-03-09T20:10:59.704Z,7.10
2024-03-09T20:16:01.614Z,6.90
2024-03-09T20:18:33.348Z,6.60
2024-03-09T20:21:05.718Z,9.80
2024-03-09T20:23:37.228Z,13.60
2024-03-09T20:26:12.879Z,9.10
2024-03-09T20:28:45.471Z,9.90
2024-03-09T20:31:16.714Z,7.20
2024-03-09T20:33:48.496Z,9.50
2024-03-09T20:36:19.771Z,6.80
2024-03-09T20:38:51.163Z,8.00
2024-03-09T20:41:22.621Z,8.30
2024-03-09T20:43:54.445Z,7.20
2024-03-09T20:46:25.940Z,7.40
2024-03-09T20:49:00.535Z,7.80
2024-03-09T20:51:32.100Z,8.90
2024-03-09T20:54:04.728Z,6.80
2024-03-09T20:56:38.590Z,6.80
2024-03-09T21:01:42.600Z,5.80
2024-03-09T21:04:13.942Z,7.50
2024-03-09T21:06:45.118Z,6.40
2024-03-09T21:09:16.798Z,6.40
2024-03-09T21:11:48.394Z,5.90
2024-03-09T21:14:26.895Z,7.90
2024-03-09T21:16:59.006Z,7.90
2024-03-09T21:19:30.290Z,11.60
2024-03-09T21:22:04.318Z,5.70
2024-03-09T21:24:35.638Z,6.80
2024-03-09T21:27:09.596Z,6.10
2024-03-09T21:29:41.781Z,6.80
2024-03-09T21:32:14.136Z,7.40
2024-03-09T21:34:45.672Z,5.80
2024-03-09T21:37:17.666Z,6.10
2024-03-09T21:39:49.591Z,6.60
2024-03-09T21:42:20.683Z,6.00
2024-03-09T21:44:52.582Z,5.80
2024-03-09T21:47:24.314Z,6.50
2024-03-09T21:49:56.766Z,6.40
2024-03-09T21:52:28.165Z,7.10
2024-03-09T21:54:59.311Z,6.30
2024-03-09T21:57:31.048Z,6.10
2024-03-09T22:00:02.494Z,6.10
2024-03-09T22:02:33.751Z,7.20
2024-03-09T22:05:05.271Z,5.40
2024-03-09T22:07:37.345Z,5.20
2024-03-09T22:10:11.011Z,6.30
2024-03-09T22:12:42.481Z,5.90
2024-03-09T22:15:14.946Z,5.30
2024-03-09T22:17:46.500Z,5.40
2024-03-09T22:20:18.943Z,5.50
2024-03-09T22:22:50.947Z,5.70
2024-03-09T22:25:27.709Z,5.70
2024-03-09T22:27:59.747Z,5.60
2024-03-09T22:30:32.465Z,6.40
2024-03-09T22:33:06.106Z,5.80
2024-03-09T22:35:37.248Z,6.30
2024-03-09T22:38:08.839Z,6.60
2024-03-09T22:40:39.966Z,5.10
2024-03-09T22:43:12.223Z,5.90
2024-03-09T22:45:43.772Z,6.00
2024-03-09T22:48:15.175Z,5.60
2024-03-09T22:50:47.409Z,5.80
2024-03-09T22:53:18.555Z,5.50
2024-03-09T22:55:49.621Z,5.90
2024-03-09T22:58:20.879Z,6.20
2024-03-09T23:01:06.170Z,5.20
2024-03-09T23:03:37.181Z,6.70
2024-03-09T23:06:08.545Z,6.00
2024-03-09T23:08:39.919Z,7.30
2024-03-09T23:11:10.901Z,6.50
2024-03-09T23:13:42.011Z,6.80
2024-03-09T23:16:15.075Z,4.90
2024-03-09T23:18:46.242Z,6.10
2024-03-09T23:21:17.165Z,5.50
2024-03-09T23:23:49.371Z,5.70
2024-03-09T23:26:20.412Z,6.50
2024-03-09T23:28:51.382Z,7.70
2024-03-09T23:31:30.709Z,6.60
2024-03-09T23:34:01.817Z,5.50
2024-03-09T23:36:33.080Z,6.60
2024-03-09T23:39:04.007Z,5.90
2024-03-09T23:41:34.987Z,5.90
2024-03-09T23:44:06.112Z,6.50
2024-03-09T23:46:37.609Z,6.80
2024-03-09T23:49:10.424Z,6.40
2024-03-09T23:51:41.472Z,6.10
2024-03-09T23:54:14.942Z,6.50
2024-03-09T23:56:46.128Z,7.10
2024-03-09T23:59:17.259Z,6.90
